Terminal Aerodrome Forecast
Issued by NWS

Home | Current Version | Previous Version | Text Only | Print | Product List | Glossary On
Versions: 1 2 3 4 5 6 7 8 9 10 11 12 13
222
FTUS43 KIWX 300525
TAFSBN
TAF
KSBN 300525Z 3006/3106 25004KT P6SM SCT080
     FM301400 26010KT P6SM FEW045
     FM301900 26015G22KT P6SM VCSH BKN050
     FM310100 26006KT P6SM SCT150=

USA.gov is the U.S. government's official web portal to all federal, state and local government web resources and services.